sensor_id;sensor_type;location;lat;lon;timestamp;temperature;humidity
31783;DHT22;18351;47.560;9.708;2023-05-10T00:00:22;14.80;99.90
31783;DHT22;18351;47.560;9.708;2023-05-10T00:02:49;14.80;99.90
31783;DHT22;18351;47.560;9.708;2023-05-10T00:05:14;14.80;99.90
31783;DHT22;18351;47.560;9.708;2023-05-10T00:07:40;14.80;99.90
31783;DHT22;18351;47.560;9.708;2023-05-10T00:10:06;14.90;99.90
31783;DHT22;18351;47.560;9.708;2023-05-10T00:12:31;14.90;99.90
31783;DHT22;18351;47.560;9.708;2023-05-10T00:14:57;14.90;99.90
31783;DHT22;18351;47.560;9.708;2023-05-10T00:17:23;14.70;99.90
31783;DHT22;18351;47.560;9.708;2023-05-10T00:19:48;14.70;99.90
31783;DHT22;18351;47.560;9.708;2023-05-10T00:22:14;14.80;99.90
31783;DHT22;18351;47.560;9.708;2023-05-10T00:24:39;14.80;99.90
31783;DHT22;18351;47.560;9.708;2023-05-10T00:27:05;14.90;99.90
31783;DHT22;18351;47.560;9.708;2023-05-10T00:29:30;14.90;99.90
31783;DHT22;18351;47.560;9.708;2023-05-10T00:31:57;14.80;99.90
31783;DHT22;18351;47.560;9.708;2023-05-10T00:34:22;14.70;99.90
31783;DHT22;18351;47.560;9.708;2023-05-10T00:36:48;14.70;99.90
31783;DHT22;18351;47.560;9.708;2023-05-10T00:39:13;14.60;99.90
31783;DHT22;18351;47.560;9.708;2023-05-10T00:41:39;14.50;99.90
31783;DHT22;18351;47.560;9.708;2023-05-10T00:44:04;14.40;99.90
31783;DHT22;18351;47.560;9.708;2023-05-10T00:46:30;14.30;99.90
31783;DHT22;18351;47.560;9.708;2023-05-10T00:48:56;14.30;99.90
31783;DHT22;18351;47.560;9.708;2023-05-10T00:51:22;14.20;99.90
31783;DHT22;18351;47.560;9.708;2023-05-10T00:53:48;14.20;99.90
31783;DHT22;18351;47.560;9.708;2023-05-10T00:56:15;14.20;99.90
31783;DHT22;18351;47.560;9.708;2023-05-10T00:58:41;14.10;99.90
31783;DHT22;18351;47.560;9.708;2023-05-10T01:01:08;14.10;99.90
31783;DHT22;18351;47.560;9.708;2023-05-10T01:03:35;14.00;99.90
31783;DHT22;18351;47.560;9.708;2023-05-10T01:06:01;14.00;99.90
31783;DHT22;18351;47.560;9.708;2023-05-10T01:08:26;14.00;99.90
31783;DHT22;18351;47.560;9.708;2023-05-10T01:10:53;14.00;99.90
31783;DHT22;18351;47.560;9.708;2023-05-10T01:13:37;14.00;99.90
31783;DHT22;18351;47.560;9.708;2023-05-10T01:16:05;14.00;99.90
31783;DHT22;18351;47.560;9.708;2023-05-10T01:18:34;14.00;99.90
31783;DHT22;18351;47.560;9.708;2023-05-10T01:21:23;13.90;99.90
31783;DHT22;18351;47.560;9.708;2023-05-10T01:26:47;13.80;99.90
31783;DHT22;18351;47.560;9.708;2023-05-10T01:35:10;13.70;99.90
31783;DHT22;18351;47.560;9.708;2023-05-10T01:38:17;13.70;99.90
31783;DHT22;18351;47.560;9.708;2023-05-10T01:41:16;13.70;99.90
31783;DHT22;18351;47.560;9.708;2023-05-10T01:46:28;13.70;99.90
31783;DHT22;18351;47.560;9.708;2023-05-10T01:48:59;13.70;99.90
31783;DHT22;18351;47.560;9.708;2023-05-10T01:51:29;13.70;99.90
31783;DHT22;18351;47.560;9.708;2023-05-10T01:54:01;13.70;99.90
31783;DHT22;18351;47.560;9.708;2023-05-10T01:56:28;13.70;99.90
31783;DHT22;18351;47.560;9.708;2023-05-10T01:58:55;13.70;99.90
31783;DHT22;18351;47.560;9.708;2023-05-10T02:01:22;13.60;99.90
31783;DHT22;18351;47.560;9.708;2023-05-10T02:03:49;13.70;99.90
31783;DHT22;18351;47.560;9.708;2023-05-10T02:06:16;13.60;99.90
31783;DHT22;18351;47.560;9.708;2023-05-10T02:08:45;13.60;99.90
31783;DHT22;18351;47.560;9.708;2023-05-10T02:11:13;13.70;99.90
31783;DHT22;18351;47.560;9.708;2023-05-10T02:13:39;13.60;99.90
31783;DHT22;18351;47.560;9.708;2023-05-10T02:16:06;13.60;99.90
31783;DHT22;18351;47.560;9.708;2023-05-10T02:18:34;13.60;99.90
31783;DHT22;18351;47.560;9.708;2023-05-10T02:21:02;13.60;99.90
31783;DHT22;18351;47.560;9.708;2023-05-10T02:23:28;13.60;99.90
31783;DHT22;18351;47.560;9.708;2023-05-10T02:25:55;13.60;99.90
31783;DHT22;18351;47.560;9.708;2023-05-10T02:28:23;13.60;99.90
31783;DHT22;18351;47.560;9.708;2023-05-10T02:30:49;13.60;99.90
31783;DHT22;18351;47.560;9.708;2023-05-10T02:33:16;13.60;99.90
31783;DHT22;18351;47.560;9.708;2023-05-10T02:35:42;13.70;99.90
31783;DHT22;18351;47.560;9.708;2023-05-10T02:38:08;13.70;99.90
31783;DHT22;18351;47.560;9.708;2023-05-10T02:40:35;13.70;99.90
31783;DHT22;18351;47.560;9.708;2023-05-10T02:43:02;13.70;99.90
31783;DHT22;18351;47.560;9.708;2023-05-10T02:45:31;13.70;99.90
31783;DHT22;18351;47.560;9.708;2023-05-10T02:47:56;13.70;99.90
31783;DHT22;18351;47.560;9.708;2023-05-10T02:50:27;13.70;99.90
31783;DHT22;18351;47.560;9.708;2023-05-10T02:53:03;13.70;99.90
31783;DHT22;18351;47.560;9.708;2023-05-10T02:55:35;13.70;99.90
31783;DHT22;18351;47.560;9.708;2023-05-10T02:58:02;13.80;99.90
31783;DHT22;18351;47.560;9.708;2023-05-10T03:00:28;13.80;99.90
31783;DHT22;18351;47.560;9.708;2023-05-10T03:02:54;13.80;99.90
31783;DHT22;18351;47.560;9.708;2023-05-10T03:05:20;13.70;99.90
31783;DHT22;18351;47.560;9.708;2023-05-10T03:07:46;13.70;99.90
31783;DHT22;18351;47.560;9.708;2023-05-10T03:10:12;13.70;99.90
31783;DHT22;18351;47.560;9.708;2023-05-10T03:13:13;13.70;99.90
31783;DHT22;18351;47.560;9.708;2023-05-10T03:18:22;13.70;99.90
31783;DHT22;18351;47.560;9.708;2023-05-10T03:20:49;13.70;99.90
31783;DHT22;18351;47.560;9.708;2023-05-10T03:25:44;13.60;99.90
31783;DHT22;18351;47.560;9.708;2023-05-10T03:28:12;13.60;99.90
31783;DHT22;18351;47.560;9.708;2023-05-10T03:30:38;13.70;99.90
31783;DHT22;18351;47.560;9.708;2023-05-10T03:33:05;13.70;99.90
31783;DHT22;18351;47.560;9.708;2023-05-10T03:35:34;13.70;99.90
31783;DHT22;18351;47.560;9.708;2023-05-10T03:38:00;13.70;99.90
31783;DHT22;18351;47.560;9.708;2023-05-10T03:40:26;13.70;99.90
31783;DHT22;18351;47.560;9.708;2023-05-10T03:42:54;13.70;99.90
31783;DHT22;18351;47.560;9.708;2023-05-10T03:45:20;13.70;99.90
31783;DHT22;18351;47.560;9.708;2023-05-10T03:47:46;13.70;99.90
31783;DHT22;18351;47.560;9.708;2023-05-10T03:50:11;13.70;99.90
31783;DHT22;18351;47.560;9.708;2023-05-10T03:52:37;13.70;99.90
31783;DHT22;18351;47.560;9.708;2023-05-10T03:55:05;13.80;99.90
31783;DHT22;18351;47.560;9.708;2023-05-10T03:57:31;13.70;99.90
31783;DHT22;18351;47.560;9.708;2023-05-10T03:59:56;13.70;99.90
31783;DHT22;18351;47.560;9.708;2023-05-10T04:02:22;13.70;99.90
31783;DHT22;18351;47.560;9.708;2023-05-10T04:04:47;13.70;99.90
31783;DHT22;18351;47.560;9.708;2023-05-10T04:07:13;13.70;99.90
31783;DHT22;18351;47.560;9.708;2023-05-10T04:09:39;13.70;99.90
31783;DHT22;18351;47.560;9.708;2023-05-10T04:12:05;13.60;99.90
31783;DHT22;18351;47.560;9.708;2023-05-10T04:14:31;13.60;99.90
31783;DHT22;18351;47.560;9.708;2023-05-10T04:16:56;13.50;99.90
31783;DHT22;18351;47.560;9.708;2023-05-10T04:19:22;13.50;99.90
31783;DHT22;18351;47.560;9.708;2023-05-10T04:21:48;13.60;99.90
31783;DHT22;18351;47.560;9.708;2023-05-10T04:24:13;13.60;99.90
31783;DHT22;18351;47.560;9.708;2023-05-10T04:26:39;13.70;99.90
31783;DHT22;18351;47.560;9.708;2023-05-10T04:29:04;13.70;99.90
31783;DHT22;18351;47.560;9.708;2023-05-10T04:31:30;13.80;99.90
31783;DHT22;18351;47.560;9.708;2023-05-10T04:33:55;13.90;99.90
31783;DHT22;18351;47.560;9.708;2023-05-10T04:36:21;13.80;99.90
31783;DHT22;18351;47.560;9.708;2023-05-10T04:38:46;13.90;99.90
31783;DHT22;18351;47.560;9.708;2023-05-10T04:41:12;14.00;99.90
31783;DHT22;18351;47.560;9.708;2023-05-10T04:43:38;14.00;99.90
31783;DHT22;18351;47.560;9.708;2023-05-10T04:46:04;14.00;99.90
31783;DHT22;18351;47.560;9.708;2023-05-10T04:48:30;14.00;99.90
31783;DHT22;18351;47.560;9.708;2023-05-10T04:50:56;14.10;99.90
31783;DHT22;18351;47.560;9.708;2023-05-10T04:53:22;14.10;99.90
31783;DHT22;18351;47.560;9.708;2023-05-10T04:55:47;14.20;99.90
31783;DHT22;18351;47.560;9.708;2023-05-10T04:58:13;14.20;99.90
31783;DHT22;18351;47.560;9.708;2023-05-10T05:00:39;14.20;99.90
31783;DHT22;18351;47.560;9.708;2023-05-10T05:03:04;14.20;99.90
31783;DHT22;18351;47.560;9.708;2023-05-10T05:05:30;14.20;99.90
31783;DHT22;18351;47.560;9.708;2023-05-10T05:07:56;14.30;99.90
31783;DHT22;18351;47.560;9.708;2023-05-10T05:10:21;14.30;99.90
31783;DHT22;18351;47.560;9.708;2023-05-10T05:12:47;14.40;99.90
31783;DHT22;18351;47.560;9.708;2023-05-10T05:15:12;14.40;99.90
31783;DHT22;18351;47.560;9.708;2023-05-10T05:17:38;14.50;99.90
31783;DHT22;18351;47.560;9.708;2023-05-10T05:20:04;14.60;99.90
31783;DHT22;18351;47.560;9.708;2023-05-10T05:22:30;14.60;99.90
31783;DHT22;18351;47.560;9.708;2023-05-10T05:24:56;14.80;99.90
31783;DHT22;18351;47.560;9.708;2023-05-10T05:27:24;14.80;99.90
31783;DHT22;18351;47.560;9.708;2023-05-10T05:29:55;14.80;99.90
31783;DHT22;18351;47.560;9.708;2023-05-10T05:32:21;14.80;99.90
31783;DHT22;18351;47.560;9.708;2023-05-10T05:34:47;14.70;99.90
31783;DHT22;18351;47.560;9.708;2023-05-10T05:37:17;14.70;99.90
31783;DHT22;18351;47.560;9.708;2023-05-10T05:39:43;14.80;99.90
31783;DHT22;18351;47.560;9.708;2023-05-10T05:42:10;14.70;99.90
31783;DHT22;18351;47.560;9.708;2023-05-10T05:44:35;14.70;99.90
31783;DHT22;18351;47.560;9.708;2023-05-10T05:47:01;14.70;99.90
31783;DHT22;18351;47.560;9.708;2023-05-10T05:49:27;14.70;99.90
31783;DHT22;18351;47.560;9.708;2023-05-10T05:51:52;14.60;99.90
31783;DHT22;18351;47.560;9.708;2023-05-10T05:54:18;14.60;99.90
31783;DHT22;18351;47.560;9.708;2023-05-10T05:56:43;14.50;99.90
31783;DHT22;18351;47.560;9.708;2023-05-10T05:59:10;14.50;99.90
31783;DHT22;18351;47.560;9.708;2023-05-10T06:01:35;14.50;99.90
31783;DHT22;18351;47.560;9.708;2023-05-10T06:04:01;14.60;99.90
31783;DHT22;18351;47.560;9.708;2023-05-10T06:06:26;14.60;99.90
31783;DHT22;18351;47.560;9.708;2023-05-10T06:08:53;14.60;99.90
31783;DHT22;18351;47.560;9.708;2023-05-10T06:11:18;14.60;99.90
31783;DHT22;18351;47.560;9.708;2023-05-10T06:13:44;14.70;99.90
31783;DHT22;18351;47.560;9.708;2023-05-10T06:16:09;14.70;99.90
31783;DHT22;18351;47.560;9.708;2023-05-10T06:18:35;14.70;99.90
31783;DHT22;18351;47.560;9.708;2023-05-10T06:21:01;14.70;99.90
31783;DHT22;18351;47.560;9.708;2023-05-10T06:23:26;14.60;99.90
31783;DHT22;18351;47.560;9.708;2023-05-10T06:25:52;14.60;99.90
31783;DHT22;18351;47.560;9.708;2023-05-10T06:28:18;14.70;99.90
31783;DHT22;18351;47.560;9.708;2023-05-10T06:30:43;14.70;99.90
31783;DHT22;18351;47.560;9.708;2023-05-10T06:33:09;14.70;99.90
31783;DHT22;18351;47.560;9.708;2023-05-10T06:35:35;14.70;99.90
31783;DHT22;18351;47.560;9.708;2023-05-10T06:38:02;14.70;99.90
31783;DHT22;18351;47.560;9.708;2023-05-10T06:40:27;14.60;99.90
31783;DHT22;18351;47.560;9.708;2023-05-10T06:42:53;14.50;99.90
31783;DHT22;18351;47.560;9.708;2023-05-10T06:45:19;14.40;99.90
31783;DHT22;18351;47.560;9.708;2023-05-10T06:47:44;14.40;99.90
31783;DHT22;18351;47.560;9.708;2023-05-10T06:50:11;14.40;99.90
31783;DHT22;18351;47.560;9.708;2023-05-10T06:52:37;14.40;99.90
31783;DHT22;18351;47.560;9.708;2023-05-10T06:55:04;14.50;99.90
31783;DHT22;18351;47.560;9.708;2023-05-10T06:57:30;14.60;99.90
31783;DHT22;18351;47.560;9.708;2023-05-10T06:59:55;14.60;99.90
31783;DHT22;18351;47.560;9.708;2023-05-10T07:02:21;14.70;99.90
31783;DHT22;18351;47.560;9.708;2023-05-10T07:04:48;14.70;99.90
31783;DHT22;18351;47.560;9.708;2023-05-10T07:07:14;14.70;99.90
31783;DHT22;18351;47.560;9.708;2023-05-10T07:09:40;14.80;99.90
31783;DHT22;18351;47.560;9.708;2023-05-10T07:12:05;14.80;99.90
31783;DHT22;18351;47.560;9.708;2023-05-10T07:14:31;14.80;99.90
31783;DHT22;18351;47.560;9.708;2023-05-10T07:16:56;14.80;99.90
31783;DHT22;18351;47.560;9.708;2023-05-10T07:19:22;14.70;99.90
31783;DHT22;18351;47.560;9.708;2023-05-10T07:21:47;14.80;99.90
31783;DHT22;18351;47.560;9.708;2023-05-10T07:24:13;14.80;99.90
31783;DHT22;18351;47.560;9.708;2023-05-10T07:26:39;14.70;99.90
31783;DHT22;18351;47.560;9.708;2023-05-10T07:29:04;14.60;99.90
31783;DHT22;18351;47.560;9.708;2023-05-10T07:31:30;14.60;99.90
31783;DHT22;18351;47.560;9.708;2023-05-10T07:33:56;14.60;99.90
31783;DHT22;18351;47.560;9.708;2023-05-10T07:36:21;14.60;99.90
31783;DHT22;18351;47.560;9.708;2023-05-10T07:38:47;14.60;99.90
31783;DHT22;18351;47.560;9.708;2023-05-10T07:41:12;14.70;99.90
31783;DHT22;18351;47.560;9.708;2023-05-10T07:43:38;14.70;99.90
31783;DHT22;18351;47.560;9.708;2023-05-10T07:46:04;14.80;99.90
31783;DHT22;18351;47.560;9.708;2023-05-10T07:48:30;14.80;99.90
31783;DHT22;18351;47.560;9.708;2023-05-10T07:50:56;14.90;99.90
31783;DHT22;18351;47.560;9.708;2023-05-10T07:53:22;14.90;99.90
31783;DHT22;18351;47.560;9.708;2023-05-10T07:55:51;15.00;99.90
31783;DHT22;18351;47.560;9.708;2023-05-10T07:58:19;15.00;99.90
31783;DHT22;18351;47.560;9.708;2023-05-10T08:00:44;15.00;99.90
31783;DHT22;18351;47.560;9.708;2023-05-10T08:03:10;15.00;99.90
31783;DHT22;18351;47.560;9.708;2023-05-10T08:05:36;14.90;99.90
31783;DHT22;18351;47.560;9.708;2023-05-10T08:08:01;14.90;99.90
31783;DHT22;18351;47.560;9.708;2023-05-10T08:10:27;15.00;99.90
31783;DHT22;18351;47.560;9.708;2023-05-10T08:12:52;15.10;99.90
31783;DHT22;18351;47.560;9.708;2023-05-10T08:15:18;15.20;99.90
31783;DHT22;18351;47.560;9.708;2023-05-10T08:17:43;15.30;99.90
31783;DHT22;18351;47.560;9.708;2023-05-10T08:20:09;15.40;99.90
31783;DHT22;18351;47.560;9.708;2023-05-10T08:22:35;15.50;99.90
31783;DHT22;18351;47.560;9.708;2023-05-10T08:25:01;15.50;99.90
31783;DHT22;18351;47.560;9.708;2023-05-10T08:27:26;15.40;99.90
31783;DHT22;18351;47.560;9.708;2023-05-10T08:29:52;15.30;99.90
31783;DHT22;18351;47.560;9.708;2023-05-10T08:32:17;15.30;99.90
31783;DHT22;18351;47.560;9.708;2023-05-10T08:34:43;15.40;99.90
31783;DHT22;18351;47.560;9.708;2023-05-10T08:37:08;15.20;99.90
31783;DHT22;18351;47.560;9.708;2023-05-10T08:39:35;15.20;99.90
31783;DHT22;18351;47.560;9.708;2023-05-10T08:42:03;15.20;99.90
31783;DHT22;18351;47.560;9.708;2023-05-10T08:44:32;15.20;99.90
31783;DHT22;18351;47.560;9.708;2023-05-10T08:46:59;15.30;99.90
31783;DHT22;18351;47.560;9.708;2023-05-10T08:49:31;15.30;99.90
31783;DHT22;18351;47.560;9.708;2023-05-10T08:51:57;15.40;99.90
31783;DHT22;18351;47.560;9.708;2023-05-10T08:54:24;15.50;99.90
31783;DHT22;18351;47.560;9.708;2023-05-10T08:56:50;15.60;99.90
31783;DHT22;18351;47.560;9.708;2023-05-10T08:59:17;15.70;99.90
31783;DHT22;18351;47.560;9.708;2023-05-10T09:01:44;15.70;99.90
31783;DHT22;18351;47.560;9.708;2023-05-10T09:04:10;15.70;99.90
31783;DHT22;18351;47.560;9.708;2023-05-10T09:06:36;15.70;99.90
31783;DHT22;18351;47.560;9.708;2023-05-10T09:09:02;15.70;99.90
31783;DHT22;18351;47.560;9.708;2023-05-10T09:11:28;15.80;99.90
31783;DHT22;18351;47.560;9.708;2023-05-10T09:13:55;15.90;99.90
31783;DHT22;18351;47.560;9.708;2023-05-10T09:16:22;15.90;99.90
31783;DHT22;18351;47.560;9.708;2023-05-10T09:18:48;15.90;99.90
31783;DHT22;18351;47.560;9.708;2023-05-10T09:21:14;15.80;99.90
31783;DHT22;18351;47.560;9.708;2023-05-10T09:23:43;15.90;99.90
31783;DHT22;18351;47.560;9.708;2023-05-10T09:26:09;16.00;99.90
31783;DHT22;18351;47.560;9.708;2023-05-10T09:28:59;15.90;99.90
31783;DHT22;18351;47.560;9.708;2023-05-10T09:31:25;15.90;99.90
31783;DHT22;18351;47.560;9.708;2023-05-10T09:34:08;15.70;99.90
31783;DHT22;18351;47.560;9.708;2023-05-10T09:36:33;15.60;99.90
31783;DHT22;18351;47.560;9.708;2023-05-10T09:38:59;15.50;99.90
31783;DHT22;18351;47.560;9.708;2023-05-10T09:41:25;15.50;99.90
31783;DHT22;18351;47.560;9.708;2023-05-10T09:43:55;15.40;99.90
31783;DHT22;18351;47.560;9.708;2023-05-10T09:46:21;15.40;99.90
31783;DHT22;18351;47.560;9.708;2023-05-10T09:48:48;15.40;99.90
31783;DHT22;18351;47.560;9.708;2023-05-10T09:51:27;15.40;99.90
31783;DHT22;18351;47.560;9.708;2023-05-10T09:56:35;15.40;99.90
31783;DHT22;18351;47.560;9.708;2023-05-10T09:59:11;15.40;99.90
31783;DHT22;18351;47.560;9.708;2023-05-10T10:01:38;15.60;99.90
31783;DHT22;18351;47.560;9.708;2023-05-10T10:04:05;15.70;99.90
31783;DHT22;18351;47.560;9.708;2023-05-10T10:06:38;15.90;99.90
31783;DHT22;18351;47.560;9.708;2023-05-10T10:09:05;16.00;99.90
31783;DHT22;18351;47.560;9.708;2023-05-10T10:11:31;16.00;99.90
31783;DHT22;18351;47.560;9.708;2023-05-10T10:13:58;16.10;99.90
31783;DHT22;18351;47.560;9.708;2023-05-10T10:16:24;16.00;99.90
31783;DHT22;18351;47.560;9.708;2023-05-10T10:18:50;16.00;99.90
31783;DHT22;18351;47.560;9.708;2023-05-10T10:21:16;16.00;99.90
31783;DHT22;18351;47.560;9.708;2023-05-10T10:23:42;15.80;99.90
31783;DHT22;18351;47.560;9.708;2023-05-10T10:26:10;15.70;99.90
31783;DHT22;18351;47.560;9.708;2023-05-10T10:29:16;15.60;99.90
31783;DHT22;18351;47.560;9.708;2023-05-10T10:34:28;15.70;99.90
31783;DHT22;18351;47.560;9.708;2023-05-10T10:36:55;15.60;99.90
31783;DHT22;18351;47.560;9.708;2023-05-10T10:39:22;15.60;99.90
31783;DHT22;18351;47.560;9.708;2023-05-10T10:41:52;15.60;99.90
31783;DHT22;18351;47.560;9.708;2023-05-10T10:52:27;15.80;99.90
31783;DHT22;18351;47.560;9.708;2023-05-10T10:55:11;16.00;99.90
31783;DHT22;18351;47.560;9.708;2023-05-10T10:57:44;16.10;99.90
31783;DHT22;18351;47.560;9.708;2023-05-10T11:03:11;15.90;99.90
31783;DHT22;18351;47.560;9.708;2023-05-10T11:05:49;15.80;99.90
31783;DHT22;18351;47.560;9.708;2023-05-10T11:08:19;15.60;99.90
31783;DHT22;18351;47.560;9.708;2023-05-10T11:11:02;15.50;99.90
31783;DHT22;18351;47.560;9.708;2023-05-10T11:14:02;15.50;99.90
31783;DHT22;18351;47.560;9.708;2023-05-10T11:16:28;15.40;99.90
31783;DHT22;18351;47.560;9.708;2023-05-10T11:19:03;15.30;99.90
31783;DHT22;18351;47.560;9.708;2023-05-10T11:21:30;15.20;99.90
31783;DHT22;18351;47.560;9.708;2023-05-10T11:23:57;15.10;99.90
31783;DHT22;18351;47.560;9.708;2023-05-10T11:26:34;15.10;99.90
31783;DHT22;18351;47.560;9.708;2023-05-10T11:29:01;15.10;99.90
31783;DHT22;18351;47.560;9.708;2023-05-10T11:31:27;15.10;99.90
31783;DHT22;18351;47.560;9.708;2023-05-10T11:33:57;15.20;99.90
31783;DHT22;18351;47.560;9.708;2023-05-10T11:36:28;15.30;99.90
31783;DHT22;18351;47.560;9.708;2023-05-10T11:38:55;15.40;99.90
31783;DHT22;18351;47.560;9.708;2023-05-10T11:41:22;15.40;99.90
31783;DHT22;18351;47.560;9.708;2023-05-10T11:43:50;15.40;99.90
31783;DHT22;18351;47.560;9.708;2023-05-10T11:46:18;15.50;99.90
31783;DHT22;18351;47.560;9.708;2023-05-10T11:48:45;15.50;99.90
31783;DHT22;18351;47.560;9.708;2023-05-10T11:51:12;15.70;99.90
31783;DHT22;18351;47.560;9.708;2023-05-10T11:53:37;15.80;99.90
31783;DHT22;18351;47.560;9.708;2023-05-10T11:56:08;16.10;99.90
31783;DHT22;18351;47.560;9.708;2023-05-10T11:58:35;16.30;99.90
31783;DHT22;18351;47.560;9.708;2023-05-10T12:01:01;16.50;99.90
31783;DHT22;18351;47.560;9.708;2023-05-10T12:03:28;16.60;99.90
31783;DHT22;18351;47.560;9.708;2023-05-10T12:05:54;16.60;99.90
31783;DHT22;18351;47.560;9.708;2023-05-10T12:08:25;16.60;99.90
31783;DHT22;18351;47.560;9.708;2023-05-10T12:10:52;16.60;99.90
31783;DHT22;18351;47.560;9.708;2023-05-10T12:13:19;16.60;99.90
31783;DHT22;18351;47.560;9.708;2023-05-10T12:15:45;16.60;99.90
31783;DHT22;18351;47.560;9.708;2023-05-10T12:18:14;16.70;99.90
31783;DHT22;18351;47.560;9.708;2023-05-10T12:20:40;16.70;99.90
31783;DHT22;18351;47.560;9.708;2023-05-10T12:23:08;16.90;99.90
31783;DHT22;18351;47.560;9.708;2023-05-10T12:25:36;16.90;99.90
31783;DHT22;18351;47.560;9.708;2023-05-10T12:28:06;17.00;99.90
31783;DHT22;18351;47.560;9.708;2023-05-10T12:30:33;17.10;99.90
31783;DHT22;18351;47.560;9.708;2023-05-10T12:33:10;17.30;99.90
31783;DHT22;18351;47.560;9.708;2023-05-10T12:35:50;17.40;99.90
31783;DHT22;18351;47.560;9.708;2023-05-10T12:38:34;17.40;99.90
31783;DHT22;18351;47.560;9.708;2023-05-10T12:41:05;17.30;99.90
31783;DHT22;18351;47.560;9.708;2023-05-10T12:43:31;17.20;99.90
31783;DHT22;18351;47.560;9.708;2023-05-10T12:45:57;17.10;99.90
31783;DHT22;18351;47.560;9.708;2023-05-10T12:48:24;17.10;99.90
31783;DHT22;18351;47.560;9.708;2023-05-10T12:50:49;17.00;99.90
31783;DHT22;18351;47.560;9.708;2023-05-10T12:53:16;17.00;99.90
31783;DHT22;18351;47.560;9.708;2023-05-10T12:55:45;17.00;99.90
31783;DHT22;18351;47.560;9.708;2023-05-10T12:58:10;17.00;99.90
31783;DHT22;18351;47.560;9.708;2023-05-10T13:00:36;17.10;99.90
31783;DHT22;18351;47.560;9.708;2023-05-10T13:03:04;17.20;99.90
31783;DHT22;18351;47.560;9.708;2023-05-10T13:05:32;17.30;99.90
31783;DHT22;18351;47.560;9.708;2023-05-10T13:07:57;17.40;99.90
31783;DHT22;18351;47.560;9.708;2023-05-10T13:10:23;17.50;99.90
31783;DHT22;18351;47.560;9.708;2023-05-10T13:12:49;17.50;99.90
31783;DHT22;18351;47.560;9.708;2023-05-10T13:15:14;17.50;99.90
31783;DHT22;18351;47.560;9.708;2023-05-10T13:17:40;17.50;99.90
31783;DHT22;18351;47.560;9.708;2023-05-10T13:20:08;17.60;99.90
31783;DHT22;18351;47.560;9.708;2023-05-10T13:22:35;17.60;99.90
31783;DHT22;18351;47.560;9.708;2023-05-10T13:25:00;17.70;99.90
31783;DHT22;18351;47.560;9.708;2023-05-10T13:27:26;17.50;99.90
31783;DHT22;18351;47.560;9.708;2023-05-10T13:29:51;17.50;99.90
31783;DHT22;18351;47.560;9.708;2023-05-10T13:32:17;17.50;99.90
31783;DHT22;18351;47.560;9.708;2023-05-10T13:34:42;17.50;99.90
31783;DHT22;18351;47.560;9.708;2023-05-10T13:37:08;17.40;99.90
31783;DHT22;18351;47.560;9.708;2023-05-10T13:39:34;17.30;99.90
31783;DHT22;18351;47.560;9.708;2023-05-10T13:42:00;17.30;99.90
31783;DHT22;18351;47.560;9.708;2023-05-10T13:44:25;17.30;99.90
31783;DHT22;18351;47.560;9.708;2023-05-10T13:46:51;17.30;99.90
31783;DHT22;18351;47.560;9.708;2023-05-10T13:49:16;17.30;99.90
31783;DHT22;18351;47.560;9.708;2023-05-10T13:51:43;17.20;99.90
31783;DHT22;18351;47.560;9.708;2023-05-10T13:54:08;17.10;99.90
31783;DHT22;18351;47.560;9.708;2023-05-10T13:56:34;16.90;99.90
31783;DHT22;18351;47.560;9.708;2023-05-10T13:59:00;17.00;99.90
31783;DHT22;18351;47.560;9.708;2023-05-10T14:01:25;16.90;99.90
31783;DHT22;18351;47.560;9.708;2023-05-10T14:03:51;16.90;99.90
31783;DHT22;18351;47.560;9.708;2023-05-10T14:06:17;16.90;99.90
31783;DHT22;18351;47.560;9.708;2023-05-10T14:08:42;16.90;99.90
31783;DHT22;18351;47.560;9.708;2023-05-10T14:11:08;16.90;99.90
31783;DHT22;18351;47.560;9.708;2023-05-10T14:13:34;16.80;99.90
31783;DHT22;18351;47.560;9.708;2023-05-10T14:16:00;16.80;99.90
31783;DHT22;18351;47.560;9.708;2023-05-10T14:18:26;16.90;99.90
31783;DHT22;18351;47.560;9.708;2023-05-10T14:20:52;16.90;99.90
31783;DHT22;18351;47.560;9.708;2023-05-10T14:23:18;16.90;99.90
31783;DHT22;18351;47.560;9.708;2023-05-10T14:25:45;16.80;99.90
31783;DHT22;18351;47.560;9.708;2023-05-10T14:28:11;16.80;99.90
31783;DHT22;18351;47.560;9.708;2023-05-10T14:30:37;16.70;99.90
31783;DHT22;18351;47.560;9.708;2023-05-10T14:33:03;16.70;99.90
31783;DHT22;18351;47.560;9.708;2023-05-10T14:35:28;16.70;99.90
31783;DHT22;18351;47.560;9.708;2023-05-10T14:37:56;16.70;99.90
31783;DHT22;18351;47.560;9.708;2023-05-10T14:40:22;16.70;99.90
31783;DHT22;18351;47.560;9.708;2023-05-10T14:42:48;16.70;99.90
31783;DHT22;18351;47.560;9.708;2023-05-10T14:45:13;16.80;99.90
31783;DHT22;18351;47.560;9.708;2023-05-10T14:47:39;16.70;99.90
31783;DHT22;18351;47.560;9.708;2023-05-10T14:50:05;16.60;99.90
31783;DHT22;18351;47.560;9.708;2023-05-10T14:52:31;16.60;99.90
31783;DHT22;18351;47.560;9.708;2023-05-10T14:54:56;16.60;99.90
31783;DHT22;18351;47.560;9.708;2023-05-10T14:57:24;16.60;99.90
31783;DHT22;18351;47.560;9.708;2023-05-10T14:59:49;16.60;99.90
31783;DHT22;18351;47.560;9.708;2023-05-10T15:02:15;16.50;99.90
31783;DHT22;18351;47.560;9.708;2023-05-10T15:04:41;16.40;99.90
31783;DHT22;18351;47.560;9.708;2023-05-10T15:07:07;16.50;99.90
31783;DHT22;18351;47.560;9.708;2023-05-10T15:09:32;16.40;99.90
31783;DHT22;18351;47.560;9.708;2023-05-10T15:11:58;16.20;99.90
31783;DHT22;18351;47.560;9.708;2023-05-10T15:14:23;16.20;99.90
31783;DHT22;18351;47.560;9.708;2023-05-10T15:16:49;16.00;99.90
31783;DHT22;18351;47.560;9.708;2023-05-10T15:19:14;16.00;99.90
31783;DHT22;18351;47.560;9.708;2023-05-10T15:21:40;16.00;99.90
31783;DHT22;18351;47.560;9.708;2023-05-10T15:24:08;16.00;99.90
31783;DHT22;18351;47.560;9.708;2023-05-10T15:26:34;16.00;99.90
31783;DHT22;18351;47.560;9.708;2023-05-10T15:29:00;15.90;99.90
31783;DHT22;18351;47.560;9.708;2023-05-10T15:31:26;15.90;99.90
31783;DHT22;18351;47.560;9.708;2023-05-10T15:33:57;15.90;99.90
31783;DHT22;18351;47.560;9.708;2023-05-10T15:36:23;15.90;99.90
31783;DHT22;18351;47.560;9.708;2023-05-10T15:38:48;15.80;99.90
31783;DHT22;18351;47.560;9.708;2023-05-10T15:41:14;15.80;99.90
31783;DHT22;18351;47.560;9.708;2023-05-10T15:43:39;15.80;99.90
31783;DHT22;18351;47.560;9.708;2023-05-10T15:46:05;15.80;99.90
31783;DHT22;18351;47.560;9.708;2023-05-10T15:48:31;15.80;99.90
31783;DHT22;18351;47.560;9.708;2023-05-10T15:50:56;15.70;99.90
31783;DHT22;18351;47.560;9.708;2023-05-10T15:53:22;15.70;99.90
31783;DHT22;18351;47.560;9.708;2023-05-10T15:55:47;15.60;99.90
31783;DHT22;18351;47.560;9.708;2023-05-10T15:58:13;15.60;99.90
31783;DHT22;18351;47.560;9.708;2023-05-10T16:00:38;15.50;99.90
31783;DHT22;18351;47.560;9.708;2023-05-10T16:03:04;15.50;99.90